| time (UTC) | temp F | wind direction | speed knots | gust knots | rain 1hr in | rain 24hr in | rain mn in | humidity % | barometer mb |
| 20260507183607 | 56 | 112 | 0.0 | 0.0 | 0.00 | 0.00 | 0.00 | 64 | 1015.7 |
| 20260507182539 | 56 | 90 | 0.9 | 0.9 | 0.00 | 0.00 | 0.00 | 64 | 1015.7 |
| 20260507182018 | 56 | 112 | 0.9 | 0.9 | 0.00 | 0.00 | 0.00 | 64 | 1015.7 |
| 20260507181456 | 56 | 202 | 0.0 | 0.0 | 0.00 | 0.00 | 0.00 | 64 | 1015.6 |
| 20260507180936 | 56 | 112 | 2.6 | 2.6 | 0.00 | 0.00 | 0.00 | 63 | 1015.6 |
| 20260507180415 | 56 | 90 | 1.7 | 1.7 | 0.00 | 0.00 | 0.00 | 64 | 1015.6 |
| 20260507175854 | 56 | 90 | 1.7 | 1.7 | 0.00 | 0.00 | 0.00 | 63 | 1015.6 |
| 20260507175332 | 57 | 158 | 0.0 | 0.0 | 0.00 | 0.00 | 0.00 | 65 | 1015.6 |
| 20260507174812 | 57 | 112 | 1.7 | 1.7 | 0.00 | 0.00 | 0.00 | 63 | 1015.6 |
| 20260507174251 | 57 | 112 | 0.0 | 0.0 | 0.00 | 0.00 | 0.00 | 64 | 1015.6 |
| 20260507173729 | 57 | 112 | 0.0 | 0.0 | 0.00 | 0.00 | 0.00 | 64 | 1015.6 |
| 20260507173208 | 56 | 90 | 0.0 | 0.0 | 0.00 | 0.00 | 0.00 | 65 | 1015.7 |
| 20260507172647 | 57 | 112 | 1.7 | 1.7 | 0.00 | 0.00 | 0.00 | 63 | 1015.7 |
| 20260507171852 | 57 | 112 | 4.3 | 4.3 | 0.00 | 0.00 | 0.00 | 62 | 1015.7 |
| 20260507171331 | 57 | 112 | 1.7 | 1.7 | 0.00 | 0.00 | 0.00 | 63 | 1015.7 |
| 20260507170810 | 57 | 112 | 1.7 | 1.7 | 0.00 | 0.00 | 0.00 | 63 | 1015.6 |
| 20260507170249 | 57 | 135 | 0.9 | 0.9 | 0.00 | 0.00 | 0.00 | 63 | 1015.6 |
| 20260507165728 | 57 | 112 | 1.7 | 1.7 | 0.00 | 0.00 | 0.00 | 62 | 1015.6 |
| 20260507165207 | 57 | 90 | 4.3 | 4.3 | 0.00 | 0.00 | 0.00 | 62 | 1015.7 |
| 20260507164646 | 57 | 112 | 0.0 | 0.0 | 0.00 | 0.00 | 0.00 | 63 | 1015.7 |
| 20260507164125 | 57 | 68 | 5.2 | 5.2 | 0.00 | 0.00 | 0.00 | 63 | 1015.8 |
| 20260507163604 | 57 | 135 | 2.6 | 2.6 | 0.00 | 0.00 | 0.00 | 62 | 1015.8 |
| 20260507163043 | 57 | 112 | 2.6 | 3.5 | 0.00 | 0.00 | 0.00 | 60 | 1015.8 |
| 20260507162248 | 57 | 112 | 1.7 | 1.7 | 0.00 | 0.00 | 0.00 | 64 | 1015.8 |
| 20260507161728 | 57 | 112 | 4.3 | 4.3 | 0.00 | 0.00 | 0.00 | 65 | 1015.8 |
| 20260507161207 | 57 | 90 | 3.5 | 4.3 | 0.00 | 0.00 | 0.00 | 67 | 1015.7 |
| 20260507160646 | 57 | 112 | 3.5 | 4.3 | 0.00 | 0.00 | 0.00 | 68 | 1015.8 |
| 20260507160125 | 57 | 90 | 3.5 | 4.3 | 0.00 | 0.00 | 0.00 | 66 | 1015.8 |
| 20260507155604 | 57 | 90 | 1.7 | 1.7 | 0.00 | 0.00 | 0.00 | 67 | 1015.8 |
| 20260507155043 | 57 | 90 | 2.6 | 2.6 | 0.00 | 0.00 | 0.00 | 63 | 1015.9 |
| 20260507154522 | 57 | 112 | 1.7 | 1.7 | 0.00 | 0.00 | 0.00 | 64 | 1015.9 |
| 20260507154000 | 57 | 112 | 1.7 | 1.7 | 0.00 | 0.00 | 0.00 | 64 | 1016.0 |
| 20260507153440 | 57 | 112 | 1.7 | 1.7 | 0.00 | 0.00 | 0.00 | 64 | 1016.0 |
| 20260507152919 | 57 | 112 | 2.6 | 3.5 | 0.00 | 0.00 | 0.00 | 64 | 1016.1 |
| 20260507152358 | 56 | 112 | 0.9 | 0.9 | 0.00 | 0.00 | 0.00 | 66 | 1016.1 |
| 20260507151837 | 56 | 90 | 0.0 | 0.0 | 0.00 | 0.00 | 0.00 | 68 | 1016.1 |
| 20260507151316 | 56 | 112 | 1.7 | 1.7 | 0.00 | 0.00 | 0.00 | 68 | 1016.1 |
| 20260507150520 | 56 | 90 | 1.7 | 1.7 | 0.00 | 0.00 | 0.00 | 68 | 1016.2 |
| 20260507145959 | 56 | 112 | 3.5 | 4.3 | 0.00 | 0.00 | 0.00 | 67 | 1016.2 |
| 20260507145439 | 56 | 112 | 1.7 | 1.7 | 0.00 | 0.00 | 0.00 | 68 | 1016.2 |
| 20260507144918 | 56 | 112 | 1.7 | 1.7 | 0.00 | 0.00 | 0.00 | 67 | 1016.3 |
| 20260507144357 | 57 | 90 | 1.7 | 1.7 | 0.00 | 0.00 | 0.00 | 67 | 1016.3 |
| 20260507143836 | 57 | 292 | 0.9 | 0.9 | 0.00 | 0.00 | 0.00 | 65 | 1016.4 |
| 20260507143315 | 56 | 112 | 1.7 | 1.7 | 0.00 | 0.00 | 0.00 | 65 | 1016.4 |
| 20260507142754 | 56 | 135 | 2.6 | 2.6 | 0.00 | 0.00 | 0.00 | 68 | 1016.4 |
| 20260507142233 | 56 | 112 | 1.7 | 1.7 | 0.00 | 0.00 | 0.00 | 70 | 1016.5 |
| 20260507141712 | 56 | 135 | 0.9 | 0.9 | 0.00 | 0.00 | 0.00 | 68 | 1016.6 |
| 20260507141152 | 56 | 90 | 4.3 | 4.3 | 0.00 | 0.00 | 0.00 | 69 | 1016.6 |
| 20260507140631 | 56 | 90 | 4.3 | 4.3 | 0.00 | 0.00 | 0.00 | 68 | 1016.7 |
| 20260507140110 | 56 | 112 | 2.6 | 2.6 | 0.00 | 0.00 | 0.00 | 67 | 1016.7 |
| 20260507135548 | 56 | 112 | 0.9 | 0.9 | 0.00 | 0.00 | 0.00 | 68 | 1016.8 |
| 20260507135027 | 55 | 135 | 1.7 | 1.7 | 0.00 | 0.00 | 0.00 | 68 | 1016.8 |
| 20260507134232 | 55 | 112 | 5.2 | 5.2 | 0.00 | 0.00 | 0.00 | 68 | 1016.9 |
| 20260507133711 | 56 | 90 | 4.3 | 4.3 | 0.00 | 0.00 | 0.00 | 68 | 1016.9 |
| 20260507132915 | 56 | 112 | 1.7 | 1.7 | 0.00 | 0.00 | 0.00 | 67 | 1017.0 |
| 20260507132120 | 55 | 112 | 2.6 | 3.5 | 0.00 | 0.00 | 0.00 | 67 | 1017.0 |
| 20260507131600 | 54 | 112 | 4.3 | 5.2 | 0.00 | 0.00 | 0.00 | 70 | 1017.0 |
| 20260507131039 | 54 | 68 | 1.7 | 1.7 | 0.00 | 0.00 | 0.00 | 71 | 1017.1 |
| 20260507130518 | 53 | 112 | 2.6 | 2.6 | 0.00 | 0.00 | 0.00 | 70 | 1017.1 |
| 20260507125723 | 53 | 90 | 2.6 | 2.6 | 0.00 | 0.00 | 0.00 | 74 | 1017.2 |
| 20260507125203 | 52 | 112 | 2.6 | 2.6 | 0.00 | 0.00 | 0.00 | 73 | 1017.2 |
| 20260507124642 | 52 | 112 | 2.6 | 2.6 | 0.00 | 0.00 | 0.00 | 77 | 1017.2 |
| 20260507124121 | 52 | 112 | 1.7 | 1.7 | 0.00 | 0.00 | 0.00 | 77 | 1017.2 |
| 20260507123600 | 51 | 112 | 0.9 | 0.9 | 0.00 | 0.00 | 0.00 | 76 | 1017.2 |
| 20260507123039 | 51 | 112 | 3.5 | 3.5 | 0.00 | 0.00 | 0.00 | 78 | 1017.2 |
| 20260507122519 | 51 | 112 | 4.3 | 4.3 | 0.00 | 0.00 | 0.00 | 78 | 1017.2 |
| 20260507121958 | 51 | 112 | 2.6 | 3.5 | 0.00 | 0.00 | 0.00 | 79 | 1017.2 |
| 20260507121437 | 51 | 112 | 0.9 | 0.9 | 0.00 | 0.00 | 0.00 | 77 | 1017.2 |
| 20260507120916 | 51 | 112 | 4.3 | 4.3 | 0.00 | 0.00 | 0.00 | 77 | 1017.3 |
| 20260507120355 | 51 | 112 | 0.0 | 0.0 | 0.00 | 0.00 | 0.00 | 78 | 1017.4 |
| 20260507115600 | 50 | 112 | 0.0 | 0.0 | 0.00 | 0.00 | 0.00 | 78 | 1017.4 |
| 20260507114806 | 50 | 112 | 1.7 | 1.7 | 0.00 | 0.00 | 0.00 | 79 | 1017.4 |
| 20260507114245 | 50 | 90 | 1.7 | 1.7 | 0.00 | 0.00 | 0.00 | 80 | 1017.4 |
| 20260507113725 | 50 | 112 | 3.5 | 4.3 | 0.00 | 0.00 | 0.00 | 79 | 1017.5 |
| 20260507113204 | 50 | 112 | 1.7 | 1.7 | 0.00 | 0.00 | 0.00 | 78 | 1017.5 |
| 20260507112643 | 50 | 90 | 4.3 | 4.3 | 0.00 | 0.00 | 0.00 | 79 | 1017.5 |
| 20260507112122 | 50 | 90 | 1.7 | 1.7 | 0.00 | 0.00 | 0.00 | 79 | 1017.5 |
| 20260507111327 | 50 | 68 | 3.5 | 3.5 | 0.00 | 0.00 | 0.00 | 79 | 1017.6 |
| 20260507110806 | 50 | 90 | 4.3 | 4.3 | 0.00 | 0.00 | 0.00 | 79 | 1017.6 |
| 20260507110245 | 50 | 112 | 1.7 | 1.7 | 0.00 | 0.00 | 0.00 | 79 | 1017.7 |
| 20260507105723 | 50 | 112 | 3.5 | 3.5 | 0.00 | 0.00 | 0.00 | 79 | 1017.7 |
| 20260507105202 | 50 | 112 | 2.6 | 3.5 | 0.00 | 0.00 | 0.00 | 80 | 1017.6 |
| 20260507104641 | 50 | 112 | 5.2 | 5.2 | 0.00 | 0.00 | 0.00 | 81 | 1017.6 |
| 20260507104120 | 50 | 90 | 2.6 | 2.6 | 0.00 | 0.00 | 0.00 | 81 | 1017.7 |
| 20260507103559 | 50 | 90 | 3.5 | 3.5 | 0.00 | 0.00 | 0.00 | 81 | 1017.6 |
| 20260507103036 | 50 | 68 | 2.6 | 2.6 | 0.00 | 0.00 | 0.00 | 82 | 1017.6 |
| 20260507102515 | 50 | 68 | 4.3 | 4.3 | 0.00 | 0.00 | 0.00 | 80 | 1017.6 |
| 20260507101445 | 49 | 112 | 1.7 | 1.7 | 0.00 | 0.00 | 0.00 | 83 | 1017.6 |
| 20260507100924 | 49 | 90 | 1.7 | 1.7 | 0.00 | 0.00 | 0.00 | 83 | 1017.6 |
| 20260507100403 | 49 | 90 | 1.7 | 1.7 | 0.00 | 0.00 | 0.00 | 84 | 1017.6 |
| 20260507095841 | 49 | 112 | 3.5 | 3.5 | 0.00 | 0.00 | 0.00 | 85 | 1017.6 |
| 20260507095046 | 49 | 90 | 5.2 | 5.2 | 0.00 | 0.00 | 0.00 | 85 | 1017.6 |
| 20260507094421 | 49 | 90 | 5.2 | 6.1 | 0.00 | 0.00 | 0.00 | 84 | 1017.6 |
| 20260507093901 | 49 | 68 | 3.5 | 4.3 | 0.00 | 0.00 | 0.00 | 84 | 1017.6 |
| 20260507093340 | 48 | 112 | 2.6 | 2.6 | 0.00 | 0.00 | 0.00 | 84 | 1017.6 |
| 20260507092819 | 48 | 112 | 1.7 | 1.7 | 0.00 | 0.00 | 0.00 | 86 | 1017.6 |
| 20260507092258 | 47 | 68 | 4.3 | 4.3 | 0.00 | 0.00 | 0.00 | 85 | 1017.6 |
| 20260507091737 | 47 | 45 | 0.0 | 0.0 | 0.00 | 0.00 | 0.00 | 85 | 1017.5 |
| 20260507091217 | 47 | 90 | 5.2 | 6.1 | 0.00 | 0.00 | 0.00 | 86 | 1017.5 |
| 20260507090656 | 47 | 112 | 4.3 | 4.3 | 0.00 | 0.00 | 0.00 | 86 | 1017.6 |
| 20260507090135 | 47 | 90 | 4.3 | 4.3 | 0.00 | 0.00 | 0.00 | 87 | 1017.6 |
| 20260507085340 | 46 | 112 | 4.3 | 4.3 | 0.00 | 0.00 | 0.00 | 87 | 1017.6 |
| 20260507084819 | 46 | 68 | 4.3 | 4.3 | 0.00 | 0.00 | 0.00 | 87 | 1017.6 |
| 20260507084259 | 46 | 68 | 5.2 | 5.2 | 0.00 | 0.00 | 0.00 | 87 | 1017.6 |
| 20260507083738 | 46 | 112 | 4.3 | 4.3 | 0.00 | 0.00 | 0.00 | 87 | 1017.7 |
| 20260507083218 | 45 | 90 | 4.3 | 4.3 | 0.00 | 0.00 | 0.00 | 87 | 1017.7 |
| 20260507082657 | 45 | 90 | 2.6 | 2.6 | 0.00 | 0.00 | 0.00 | 87 | 1017.7 |
| 20260507082137 | 45 | 90 | 6.1 | 6.1 | 0.00 | 0.00 | 0.00 | 87 | 1017.7 |
| 20260507081342 | 45 | 90 | 2.6 | 2.6 | 0.00 | 0.00 | 0.00 | 87 | 1017.7 |
| 20260507080822 | 45 | 112 | 4.3 | 4.3 | 0.00 | 0.00 | 0.00 | 87 | 1017.7 |
| 20260507080301 | 44 | 90 | 1.7 | 1.7 | 0.00 | 0.00 | 0.00 | 87 | 1017.7 |
| 20260507075740 | 44 | 112 | 4.3 | 4.3 | 0.00 | 0.00 | 0.00 | 88 | 1017.7 |
| 20260507075220 | 44 | 112 | 2.6 | 4.3 | 0.00 | 0.00 | 0.00 | 87 | 1017.7 |
| 20260507074424 | 44 | 112 | 1.7 | 1.7 | 0.00 | 0.00 | 0.00 | 87 | 1017.7 |
| 20260507073903 | 44 | 90 | 0.0 | 0.0 | 0.00 | 0.00 | 0.00 | 87 | 1017.7 |
| 20260507073343 | 44 | 112 | 1.7 | 1.7 | 0.00 | 0.00 | 0.00 | 87 | 1017.7 |
| 20260507072822 | 44 | 112 | 0.0 | 0.0 | 0.00 | 0.00 | 0.00 | 88 | 1017.7 |
| 20260507072301 | 44 | 90 | 3.5 | 3.5 | 0.00 | 0.00 | 0.00 | 88 | 1017.6 |
| 20260507071740 | 43 | 90 | 1.7 | 1.7 | 0.00 | 0.00 | 0.00 | 87 | 1017.6 |
| 20260507071219 | 43 | 90 | 0.0 | 0.0 | 0.00 | 0.00 | 0.00 | 87 | 1017.6 |
| 20260507070659 | 43 | 68 | 3.5 | 3.5 | 0.00 | 0.00 | 0.00 | 88 | 1017.5 |
| 20260507065903 | 43 | 90 | 2.6 | 2.6 | 0.00 | 0.00 | 0.00 | 88 | 1017.5 |
| 20260507065342 | 43 | 90 | 4.3 | 4.3 | 0.00 | 0.00 | 0.00 | 87 | 1017.5 |
| 20260507064822 | 43 | 90 | 2.6 | 2.6 | 0.00 | 0.00 | 0.00 | 87 | 1017.5 |
| 20260507064301 | 43 | 112 | 2.6 | 3.5 | 0.00 | 0.00 | 0.00 | 87 | 1017.5 |
| 20260507063740 | 43 | 90 | 3.5 | 4.3 | 0.00 | 0.00 | 0.00 | 87 | 1017.5 |
| 20260507063219 | 43 | 90 | 1.7 | 1.7 | 0.00 | 0.00 | 0.00 | 87 | 1017.6 |
| 20260507062658 | 43 | 90 | 3.5 | 4.3 | 0.00 | 0.00 | 0.00 | 87 | 1017.5 |
| 20260507062137 | 43 | 90 | 3.5 | 4.3 | 0.00 | 0.00 | 0.00 | 88 | 1017.5 |
| 20260507061616 | 43 | 90 | 0.0 | 0.0 | 0.00 | 0.00 | 0.00 | 89 | 1017.5 |
| 20260507061055 | 43 | 68 | 0.0 | 0.0 | 0.00 | 0.00 | 0.00 | 90 | 1017.4 |
| 20260507060534 | 43 | 68 | 0.0 | 0.0 | 0.00 | 0.00 | 0.00 | 89 | 1017.4 |
| 20260507060013 | 43 | 68 | 0.0 | 0.0 | 0.00 | 0.00 | 0.00 | 89 | 1017.4 |
| 20260507055452 | 43 | 112 | 0.0 | 0.0 | 0.00 | 0.00 | 0.00 | 88 | 1017.4 |
| 20260507054931 | 43 | 90 | 1.7 | 1.7 | 0.00 | 0.00 | 0.00 | 88 | 1017.2 |
| 20260507054135 | 43 | 90 | 0.0 | 0.0 | 0.00 | 0.00 | 0.00 | 87 | 1017.2 |
| 20260507053614 | 43 | 90 | 0.0 | 0.0 | 0.00 | 0.00 | 0.00 | 86 | 1017.2 |
| 20260507053053 | 42 | 112 | 2.6 | 3.5 | 0.00 | 0.00 | 0.00 | 87 | 1017.2 |
| 20260507052258 | 42 | 112 | 0.0 | 0.0 | 0.00 | 0.00 | 0.00 | 87 | 1017.2 |
| 20260507051737 | 42 | 112 | 0.0 | 0.0 | 0.00 | 0.00 | 0.00 | 87 | 1017.2 |
| 20260507051216 | 42 | 112 | 0.9 | 0.9 | 0.00 | 0.00 | 0.00 | 88 | 1017.2 |
| 20260507050655 | 42 | 112 | 1.7 | 1.7 | 0.00 | 0.00 | 0.00 | 88 | 1017.2 |
| 20260507050124 | 42 | 90 | 0.0 | 0.0 | 0.00 | 0.00 | 0.00 | 89 | 1017.1 |
| 20260507045603 | 42 | 90 | 0.0 | 0.0 | 0.00 | 0.00 | 0.00 | 89 | 1017.1 |
| 20260507045042 | 42 | 90 | 0.0 | 0.0 | 0.00 | 0.00 | 0.00 | 89 | 1017.2 |
| 20260507044521 | 42 | 90 | 0.0 | 0.0 | 0.00 | 0.00 | 0.00 | 89 | 1017.2 |
| 20260507044000 | 42 | 90 | 0.0 | 0.0 | 0.00 | 0.00 | 0.00 | 88 | 1017.1 |
| 20260507043439 | 42 | 90 | 0.0 | 0.0 | 0.00 | 0.00 | 0.00 | 87 | 1017.1 |
| 20260507042918 | 42 | 112 | 0.0 | 0.0 | 0.00 | 0.00 | 0.00 | 87 | 1017.1 |
| 20260507041850 | 42 | 112 | 0.0 | 0.0 | 0.00 | 0.00 | 0.00 | 87 | 1017.1 |
| 20260507041329 | 42 | 112 | 0.0 | 0.0 | 0.00 | 0.00 | 0.00 | 87 | 1017.2 |
| 20260507040808 | 42 | 112 | 0.0 | 0.0 | 0.00 | 0.00 | 0.00 | 88 | 1017.2 |
| 20260507040247 | 42 | 112 | 0.0 | 0.0 | 0.00 | 0.00 | 0.00 | 88 | 1017.1 |
| 20260507035726 | 42 | 112 | 0.0 | 0.0 | 0.00 | 0.00 | 0.00 | 88 | 1017.2 |
| 20260507035205 | 42 | 112 | 0.0 | 0.0 | 0.00 | 0.00 | 0.00 | 87 | 1017.2 |
| 20260507034644 | 42 | 112 | 0.0 | 0.0 | 0.00 | 0.00 | 0.00 | 87 | 1017.2 |
| 20260507034123 | 42 | 112 | 0.0 | 0.0 | 0.00 | 0.00 | 0.00 | 87 | 1017.2 |
| 20260507033603 | 42 | 112 | 0.0 | 0.0 | 0.00 | 0.00 | 0.00 | 87 | 1017.2 |
| 20260507033042 | 42 | 112 | 2.6 | 4.3 | 0.00 | 0.00 | 0.00 | 88 | 1017.2 |
| 20260507032246 | 42 | 90 | 1.7 | 1.7 | 0.00 | 0.00 | 0.00 | 88 | 1017.2 |
| 20260507031725 | 42 | 90 | 1.7 | 1.7 | 0.00 | 0.00 | 0.00 | 89 | 1017.2 |
| 20260507030929 | 41 | 68 | 3.5 | 3.5 | 0.00 | 0.00 | 0.00 | 90 | 1017.2 |
| 20260507030408 | 41 | 68 | 0.0 | 0.0 | 0.00 | 0.00 | 0.00 | 90 | 1017.2 |
| 20260507025339 | 41 | 90 | 0.0 | 0.0 | 0.00 | 0.00 | 0.00 | 90 | 1017.2 |
| 20260507024818 | 41 | 68 | 1.7 | 1.7 | 0.00 | 0.00 | 0.00 | 89 | 1017.2 |
| 20260507024023 | 41 | 90 | 4.3 | 4.3 | 0.00 | 0.00 | 0.00 | 90 | 1017.3 |
| 20260507023502 | 41 | 90 | 1.7 | 1.7 | 0.00 | 0.00 | 0.00 | 90 | 1017.2 |
| 20260507022941 | 41 | 90 | 3.5 | 3.5 | 0.00 | 0.00 | 0.00 | 90 | 1017.4 |
| 20260507022421 | 41 | 90 | 1.7 | 1.7 | 0.00 | 0.00 | 0.00 | 90 | 1017.3 |
| 20260507021626 | 41 | 90 | 2.6 | 3.5 | 0.00 | 0.00 | 0.00 | 90 | 1017.4 |
| 20260507021105 | 41 | 90 | 1.7 | 1.7 | 0.00 | 0.00 | 0.00 | 90 | 1017.4 |
| 20260507020544 | 41 | 112 | 4.3 | 4.3 | 0.00 | 0.00 | 0.00 | 90 | 1017.3 |
| 20260507015750 | 41 | 68 | 3.5 | 3.5 | 0.00 | 0.00 | 0.00 | 90 | 1017.3 |
| 20260507015229 | 40 | 68 | 2.6 | 2.6 | 0.00 | 0.00 | 0.00 | 91 | 1017.3 |
| 20260507014709 | 40 | 68 | 3.5 | 4.3 | 0.00 | 0.00 | 0.00 | 91 | 1017.3 |
| 20260507014148 | 40 | 90 | 0.0 | 0.0 | 0.00 | 0.00 | 0.00 | 91 | 1017.4 |
| 20260507013627 | 40 | 112 | 2.6 | 2.6 | 0.00 | 0.00 | 0.00 | 91 | 1017.3 |
| 20260507012832 | 40 | 90 | 3.5 | 3.5 | 0.00 | 0.00 | 0.00 | 90 | 1017.3 |
| 20260507012036 | 40 | 112 | 5.2 | 5.2 | 0.00 | 0.00 | 0.00 | 91 | 1017.4 |
| 20260507011516 | 40 | 90 | 4.3 | 4.3 | 0.00 | 0.00 | 0.00 | 91 | 1017.5 |
| 20260507010955 | 40 | 68 | 3.5 | 3.5 | 0.00 | 0.00 | 0.00 | 91 | 1017.4 |
| 20260507010434 | 39 | 90 | 3.5 | 4.3 | 0.00 | 0.00 | 0.00 | 91 | 1017.4 |
| 20260507005640 | 39 | 90 | 2.6 | 2.6 | 0.00 | 0.00 | 0.00 | 91 | 1017.4 |
| 20260507005119 | 39 | 68 | 5.2 | 5.2 | 0.00 | 0.00 | 0.00 | 92 | 1017.4 |
| 20260507004558 | 38 | 90 | 2.6 | 3.5 | 0.00 | 0.00 | 0.00 | 92 | 1017.5 |
| 20260507004038 | 38 | 68 | 3.5 | 3.5 | 0.00 | 0.00 | 0.00 | 92 | 1017.5 |
| 20260507003517 | 38 | 68 | 0.9 | 0.9 | 0.00 | 0.00 | 0.00 | 91 | 1017.5 |
| 20260507002956 | 38 | 90 | 0.0 | 0.0 | 0.00 | 0.00 | 0.00 | 91 | 1017.6 |
| 20260507002435 | 39 | 68 | 1.7 | 1.7 | 0.00 | 0.00 | 0.00 | 91 | 1017.7 |
| 20260507001914 | 39 | 68 | 0.0 | 0.0 | 0.00 | 0.00 | 0.00 | 89 | 1017.8 |
| 20260507001353 | 39 | 68 | 2.6 | 2.6 | 0.00 | 0.00 | 0.00 | 91 | 1017.8 |
| 20260507000558 | 38 | 90 | 2.6 | 2.6 | 0.00 | 0.00 | 0.00 | 91 | 1017.8 |
| 20260507000037 | 38 | 90 | 0.0 | 0.0 | 0.00 | 0.00 | 0.00 | 91 | 1017.7 |
| 20260506235517 | 39 | 90 | 1.7 | 1.7 | 0.00 | 0.00 | 0.00 | 91 | 1017.7 |
| 20260506234448 | 39 | 90 | 0.0 | 0.0 | 0.00 | 0.00 | 0.00 | 90 | 1017.7 |
| 20260506233928 | 39 | 90 | 0.0 | 0.0 | 0.00 | 0.00 | 0.00 | 91 | 1017.8 |
| 20260506233407 | 39 | 90 | 0.0 | 0.0 | 0.00 | 0.00 | 0.00 | 91 | 1017.7 |
| 20260506232846 | 39 | 90 | 0.0 | 0.0 | 0.00 | 0.00 | 0.00 | 91 | 1017.7 |
| 20260506232326 | 39 | 90 | 0.0 | 0.0 | 0.00 | 0.00 | 0.00 | 91 | 1017.7 |
| 20260506231805 | 39 | 90 | 0.0 | 0.0 | 0.00 | 0.00 | 0.00 | 91 | 1017.7 |
| 20260506231245 | 39 | 90 | 0.0 | 0.0 | 0.00 | 0.00 | 0.00 | 90 | 1017.7 |
| 20260506230724 | 39 | 90 | 0.0 | 0.0 | 0.00 | 0.00 | 0.00 | 90 | 1017.8 |
| 20260506230204 | 39 | 90 | 0.0 | 0.0 | 0.00 | 0.00 | 0.00 | 90 | 1017.8 |
| 20260506225643 | 40 | 90 | 0.0 | 0.0 | 0.00 | 0.00 | 0.00 | 90 | 1017.8 |
| 20260506225123 | 40 | 90 | 2.6 | 2.6 | 0.00 | 0.00 | 0.00 | 89 | 1017.9 |
| 20260506224328 | 40 | 90 | 1.7 | 1.7 | 0.00 | 0.00 | 0.00 | 89 | 1017.9 |
| 20260506223808 | 40 | 90 | 2.6 | 2.6 | 0.00 | 0.00 | 0.00 | 90 | 1017.8 |
| 20260506223247 | 40 | 90 | 0.0 | 0.0 | 0.00 | 0.00 | 0.00 | 88 | 1017.8 |
| 20260506222452 | 41 | 90 | 0.0 | 0.0 | 0.00 | 0.00 | 0.00 | 88 | 1017.8 |
| 20260506221931 | 41 | 90 | 0.0 | 0.0 | 0.00 | 0.00 | 0.00 | 87 | 1017.8 |
| 20260506221410 | 42 | 90 | 0.0 | 0.0 | 0.00 | 0.00 | 0.00 | 85 | 1017.7 |
| 20260506220850 | 42 | 112 | 2.6 | 2.6 | 0.00 | 0.00 | 0.00 | 84 | 1017.7 |
| 20260506220329 | 42 | 90 | 0.0 | 0.0 | 0.00 | 0.00 | 0.00 | 85 | 1017.6 |
| 20260506215809 | 42 | 90 | 0.0 | 0.0 | 0.00 | 0.00 | 0.00 | 85 | 1017.6 |
| 20260506215248 | 42 | 112 | 0.0 | 0.0 | 0.00 | 0.00 | 0.00 | 85 | 1017.6 |
| 20260506214728 | 42 | 90 | 0.0 | 0.0 | 0.00 | 0.00 | 0.00 | 85 | 1017.6 |
| 20260506214208 | 42 | 90 | 0.0 | 0.0 | 0.00 | 0.00 | 0.00 | 85 | 1017.6 |
| 20260506213647 | 42 | 90 | 2.6 | 2.6 | 0.00 | 0.00 | 0.00 | 84 | 1017.6 |
| 20260506213126 | 42 | 112 | 2.6 | 2.6 | 0.00 | 0.00 | 0.00 | 85 | 1017.5 |
| 20260506212606 | 42 | 68 | 1.7 | 1.7 | 0.00 | 0.00 | 0.00 | 87 | 1017.6 |
| 20260506212045 | 42 | 90 | 1.7 | 1.7 | 0.00 | 0.00 | 0.00 | 86 | 1017.6 |
| 20260506211524 | 43 | 90 | 1.7 | 1.7 | 0.00 | 0.00 | 0.00 | 86 | 1017.6 |
| 20260506211004 | 43 | 112 | 0.9 | 0.9 | 0.00 | 0.00 | 0.00 | 84 | 1017.6 |
| 20260506210444 | 44 | 112 | 1.7 | 1.7 | 0.00 | 0.00 | 0.00 | 83 | 1017.6 |
| 20260506205923 | 43 | 112 | 0.0 | 0.0 | 0.00 | 0.00 | 0.00 | 83 | 1017.7 |
| 20260506205402 | 43 | 112 | 3.5 | 3.5 | 0.00 | 0.00 | 0.00 | 83 | 1017.6 |
| 20260506204842 | 42 | 90 | 1.7 | 1.7 | 0.00 | 0.00 | 0.00 | 84 | 1017.6 |
| 20260506204321 | 42 | 90 | 2.6 | 2.6 | 0.00 | 0.00 | 0.00 | 85 | 1017.5 |
| 20260506203527 | 42 | 90 | 2.6 | 2.6 | 0.00 | 0.00 | 0.00 | 86 | 1017.5 |
| 20260506203006 | 42 | 90 | 0.0 | 0.0 | 0.00 | 0.00 | 0.00 | 85 | 1017.4 |
| 20260506202446 | 42 | 90 | 0.0 | 0.0 | 0.00 | 0.00 | 0.00 | 85 | 1017.4 |
| 20260506201925 | 42 | 90 | 0.9 | 0.9 | 0.00 | 0.00 | 0.00 | 85 | 1017.4 |
| 20260506201405 | 43 | 90 | 1.7 | 1.7 | 0.00 | 0.00 | 0.00 | 84 | 1017.3 |
| 20260506200844 | 44 | 90 | 1.7 | 1.7 | 0.00 | 0.00 | 0.00 | 82 | 1017.2 |
| 20260506195816 | 45 | 90 | 1.7 | 1.7 | 0.00 | 0.00 | 0.00 | 82 | 1017.2 |
| 20260506195256 | 45 | 90 | 1.7 | 1.7 | 0.00 | 0.00 | 0.00 | 80 | 1017.1 |
| 20260506194628 | 46 | 90 | 2.6 | 2.6 | 0.00 | 0.00 | 0.00 | 78 | 1017.1 |
| 20260506194108 | 46 | 90 | 1.7 | 1.7 | 0.00 | 0.00 | 0.00 | 77 | 1017.0 |
| 20260506193548 | 47 | 90 | 4.3 | 4.3 | 0.00 | 0.00 | 0.00 | 75 | 1017.0 |
| 20260506192753 | 47 | 90 | 2.6 | 2.6 | 0.00 | 0.00 | 0.00 | 76 | 1016.9 |
| 20260506192232 | 48 | 90 | 4.3 | 4.3 | 0.00 | 0.00 | 0.00 | 73 | 1016.9 |
| 20260506191712 | 48 | 90 | 1.7 | 1.7 | 0.00 | 0.00 | 0.00 | 73 | 1016.9 |
| 20260506190918 | 49 | 112 | 4.3 | 4.3 | 0.00 | 0.00 | 0.00 | 72 | 1016.9 |
| 20260506190358 | 49 | 112 | 4.3 | 4.3 | 0.00 | 0.00 | 0.00 | 73 | 1016.8 |
| 20260506185838 | 49 | 112 | 5.2 | 5.2 | 0.00 | 0.00 | 0.00 | 71 | 1016.8 |
| 20260506185043 | 49 | 90 | 6.1 | 6.1 | 0.00 | 0.00 | 0.00 | 71 | 1016.8 |
| 20260506184523 | 49 | 90 | 7.0 | 7.8 | 0.00 | 0.00 | 0.00 | 69 | 1016.8 |
| 20260506184002 | 50 | 68 | 5.2 | 5.2 | 0.00 | 0.00 | 0.00 | 70 | 1016.8 |